Hays Regional Airport
KHYS : rendu visible

Aérodrome :











RETROUVEZ-NOUS SUR...

 
LOGIN :

S'inscrire | Disclaimer

   EN    FR    IT 

 









Légende :    VFR   VFR Marginal   IFR   IFR Intensif   IFR Très Intensif
Visi : 
Plafond : 
>= 8 km
>= 3000ft
5 à 8 km
1000 à 3000 ft
1500m à 5 km
500 à 1000 ft
800 à 1500m
200 à 500 ft
< 800m
< 200 ft
Symboles :   Orages  Brouillard  Fortes neiges  Fortes précipitations  Vent > 20 kt






- Altitude de l'aérodrome : 1999 ft


KHYS - Hays Regional

DERNIER METAR :
  • 261656Z AUTO 34012KT 10SM FEW043 19/11 A2994 RMK AO2 SLP132 T01940106

METARs EXPIRÉS :
  • 261556Z AUTO 34014KT 10SM CLR 18/11 A2994 RMK AO2 SLP132 T01780106
  • 261456Z AUTO 34015G22KT 10SM CLR 17/10 A2994 RMK AO2 SLP133 T01670100 55003

TAF KHYS
Valide du 26 à 12h jusqu'au 27 à 12h UTC


261120Z 2612/2712 34012KT P6SM SCT250
FM270100 VRB04KT P6SM BKN120
FIR KZKC / Amérique du Nord



MET'MAP, la Météo Aéronautique d'un coup d'oeil ! - Copyright ORBIFLY Décembre 2007 - Disclaimer

ORBIFLY MET'MAP TEAM :

Programmation & Développement : Alexandra Zaïnal
Sur une idée originale de : Baudouin d'Aumeries
Assistance à la programmation : Marc-Olivier Méhu
Soutien technique & logistique : Manuel Goepfert

Contact : metmap@orbifly.com




SOURCES & CREDITS :

   NOAA       Earth
Advisory